createdAt,value
2023-02-04T00:00:18.278Z,51.40
2023-02-04T00:02:45.427Z,51.21
2023-02-04T00:05:13.790Z,51.55
2023-02-04T00:07:41.527Z,51.32
2023-02-04T00:10:10.204Z,51.01
2023-02-04T00:12:38.504Z,51.26
2023-02-04T00:15:06.265Z,51.56
2023-02-04T00:17:33.228Z,51.50
2023-02-04T00:20:00.183Z,51.67
2023-02-04T00:22:28.857Z,51.61
2023-02-04T00:24:55.875Z,51.04
2023-02-04T00:27:23.210Z,51.95
2023-02-04T00:29:51.465Z,52.04
2023-02-04T00:32:18.681Z,52.02
2023-02-04T00:34:45.664Z,52.44
2023-02-04T00:37:12.602Z,52.14
2023-02-04T00:39:39.564Z,52.47
2023-02-04T00:42:06.812Z,52.48
2023-02-04T00:44:33.906Z,52.74
2023-02-04T00:47:02.299Z,52.73
2023-02-04T00:49:29.177Z,52.25
2023-02-04T00:51:56.123Z,52.45
2023-02-04T00:54:23.022Z,52.62
2023-02-04T00:56:49.947Z,52.28
2023-02-04T00:59:16.886Z,52.64
2023-02-04T01:01:43.894Z,53.21
2023-02-04T01:04:12.124Z,53.30
2023-02-04T01:06:38.989Z,53.76
2023-02-04T01:09:06.323Z,52.87
2023-02-04T01:11:33.380Z,53.05
2023-02-04T01:14:00.432Z,53.44
2023-02-04T01:16:27.449Z,53.56
2023-02-04T01:18:55.845Z,52.73
2023-02-04T01:21:25.087Z,53.43
2023-02-04T01:23:52.509Z,53.72
2023-02-04T01:26:20.368Z,53.09
2023-02-04T01:28:47.606Z,53.36
2023-02-04T01:31:15.128Z,53.57
2023-02-04T01:33:42.508Z,53.13
2023-02-04T01:36:10.596Z,52.83
2023-02-04T01:38:38.850Z,53.40
2023-02-04T01:41:07.146Z,53.03
2023-02-04T01:43:34.940Z,53.20
2023-02-04T01:46:02.705Z,53.62
2023-02-04T01:48:30.303Z,53.58
2023-02-04T01:51:04.840Z,53.12
2023-02-04T01:53:33.372Z,53.73
2023-02-04T01:56:02.388Z,53.10
2023-02-04T01:58:32.208Z,53.63
2023-02-04T02:00:59.161Z,53.50
2023-02-04T02:03:26.071Z,53.21
2023-02-04T02:05:55.520Z,53.12
2023-02-04T02:08:22.440Z,53.59
2023-02-04T02:10:50.069Z,53.37
2023-02-04T02:13:19.680Z,52.92
2023-02-04T02:15:48.111Z,53.34
2023-02-04T02:18:16.006Z,53.44
2023-02-04T02:20:44.138Z,52.99
2023-02-04T02:23:22.789Z,53.22
2023-02-04T02:25:51.619Z,52.98
2023-02-04T02:28:22.691Z,53.00
2023-02-04T02:30:50.714Z,53.48
2023-02-04T02:33:21.121Z,53.44
2023-02-04T02:35:48.873Z,53.34
2023-02-04T02:38:18.627Z,53.37
2023-02-04T02:40:47.766Z,53.29
2023-02-04T02:43:20.591Z,53.32
2023-02-04T02:45:48.632Z,53.34
2023-02-04T02:48:15.764Z,53.83
2023-02-04T02:50:44.071Z,53.23
2023-02-04T02:53:13.604Z,53.30
2023-02-04T02:55:42.047Z,53.46
2023-02-04T02:58:18.134Z,52.90
2023-02-04T03:00:45.233Z,53.09
2023-02-04T03:03:18.117Z,54.15
2023-02-04T03:05:49.569Z,54.93
2023-02-04T03:08:16.922Z,54.67
2023-02-04T03:10:45.193Z,54.69
2023-02-04T03:13:14.912Z,54.70
2023-02-04T03:15:47.479Z,54.93
2023-02-04T03:18:19.152Z,54.28
2023-02-04T03:20:50.657Z,54.22
2023-02-04T03:23:18.859Z,54.67
2023-02-04T03:25:46.213Z,54.53
2023-02-04T03:28:13.254Z,54.39
2023-02-04T03:30:40.328Z,54.49
2023-02-04T03:33:08.691Z,54.52
2023-02-04T03:35:35.810Z,54.71
2023-02-04T03:38:02.724Z,54.89
2023-02-04T03:40:30.107Z,53.79
2023-02-04T03:42:59.638Z,54.07
2023-02-04T03:45:28.520Z,54.21
2023-02-04T03:47:59.496Z,55.00
2023-02-04T03:50:27.805Z,54.32
2023-02-04T03:52:54.773Z,54.94
2023-02-04T03:55:21.820Z,54.91
2023-02-04T03:57:48.753Z,55.35
2023-02-04T04:00:16.070Z,54.54
2023-02-04T04:02:42.959Z,55.13
2023-02-04T04:05:11.472Z,55.14
2023-02-04T04:07:39.727Z,54.63
2023-02-04T04:10:07.573Z,55.08
2023-02-04T04:12:34.593Z,54.63
2023-02-04T04:15:01.592Z,54.64
2023-02-04T04:17:28.567Z,54.75
2023-02-04T04:19:55.463Z,54.75
2023-02-04T04:22:22.364Z,54.52
2023-02-04T04:24:50.589Z,54.36
2023-02-04T04:27:17.548Z,54.49
2023-02-04T04:29:44.469Z,54.21
2023-02-04T04:32:11.402Z,54.01
2023-02-04T04:34:38.388Z,53.70
2023-02-04T04:37:05.301Z,53.34
2023-02-04T04:39:32.240Z,53.22
2023-02-04T04:42:00.414Z,54.11
2023-02-04T04:44:27.277Z,53.31
2023-02-04T04:46:54.608Z,53.90
2023-02-04T04:49:21.614Z,54.02
2023-02-04T04:51:48.509Z,54.47
2023-02-04T04:54:15.471Z,54.58
2023-02-04T04:56:42.338Z,54.55
2023-02-04T04:59:10.534Z,54.24
2023-02-04T05:01:37.481Z,54.37
2023-02-04T05:04:04.711Z,54.38
2023-02-04T05:06:31.587Z,53.85
2023-02-04T05:08:58.535Z,54.44
2023-02-04T05:11:25.425Z,53.75
2023-02-04T05:13:52.455Z,53.91
2023-02-04T05:16:20.720Z,53.90
2023-02-04T05:18:47.627Z,54.16
2023-02-04T05:21:14.482Z,53.79
2023-02-04T05:23:41.399Z,53.70
2023-02-04T05:26:08.323Z,53.36
2023-02-04T05:28:35.176Z,54.04
2023-02-04T05:31:02.717Z,53.23
2023-02-04T05:33:30.900Z,53.33
2023-02-04T05:35:57.760Z,53.66
2023-02-04T05:38:24.611Z,53.56
2023-02-04T05:40:51.465Z,53.41
2023-02-04T05:43:18.379Z,53.50
2023-02-04T05:45:45.276Z,53.30
2023-02-04T05:48:12.239Z,53.80
2023-02-04T05:50:40.517Z,53.50
2023-02-04T05:53:07.418Z,53.52
2023-02-04T05:55:34.261Z,53.88
2023-02-04T05:58:01.174Z,54.24
2023-02-04T06:00:28.016Z,54.44
2023-02-04T06:02:54.892Z,53.86
2023-02-04T06:05:23.064Z,54.55
2023-02-04T06:07:51.281Z,54.62
2023-02-04T06:10:18.429Z,54.50
2023-02-04T06:12:45.268Z,54.36
2023-02-04T06:15:12.929Z,53.93
2023-02-04T06:17:39.933Z,54.14
2023-02-04T06:20:08.780Z,53.39
2023-02-04T06:22:35.619Z,53.87
2023-02-04T06:25:04.163Z,53.79
2023-02-04T06:27:31.082Z,53.76
2023-02-04T06:29:58.215Z,54.45
2023-02-04T06:32:25.166Z,54.70
2023-02-04T06:34:52.050Z,55.01
2023-02-04T06:37:18.957Z,54.55
2023-02-04T06:39:45.892Z,54.14
2023-02-04T06:42:14.159Z,54.00
2023-02-04T06:44:41.019Z,54.51
2023-02-04T06:47:08.058Z,55.01
2023-02-04T06:49:34.919Z,54.56
2023-02-04T06:52:01.836Z,54.62
2023-02-04T06:54:28.691Z,55.49
2023-02-04T06:56:55.521Z,55.16
2023-02-04T06:59:25.266Z,54.97
2023-02-04T07:01:52.143Z,55.51
2023-02-04T07:04:18.982Z,55.47
2023-02-04T07:06:45.821Z,55.69
2023-02-04T07:09:12.757Z,55.84
2023-02-04T07:11:39.632Z,55.94
2023-02-04T07:14:06.493Z,55.66
2023-02-04T07:16:34.672Z,56.23
2023-02-04T07:19:01.558Z,55.49
2023-02-04T07:21:28.429Z,55.22
2023-02-04T07:23:55.327Z,55.18
2023-02-04T07:26:22.539Z,54.99
2023-02-04T07:28:49.426Z,54.80
2023-02-04T07:31:16.333Z,55.25
2023-02-04T07:33:44.615Z,54.59
2023-02-04T07:36:11.563Z,54.45
2023-02-04T07:38:38.533Z,54.26
2023-02-04T07:41:05.859Z,54.61
2023-02-04T07:43:33.059Z,54.22
2023-02-04T07:45:59.933Z,54.36
2023-02-04T07:48:26.824Z,54.63
2023-02-04T07:50:55.035Z,54.96
2023-02-04T07:53:21.899Z,54.98
2023-02-04T07:55:48.827Z,55.26
2023-02-04T07:58:15.644Z,54.72
2023-02-04T08:00:42.553Z,54.71
2023-02-04T08:03:09.473Z,54.63
2023-02-04T08:05:36.401Z,55.18
2023-02-04T08:08:04.850Z,55.12
2023-02-04T08:10:32.042Z,55.07
2023-02-04T08:12:59.025Z,54.87
2023-02-04T08:15:25.965Z,55.34
2023-02-04T08:17:52.855Z,54.79
2023-02-04T08:20:19.895Z,54.73
2023-02-04T08:22:46.845Z,54.69
2023-02-04T08:25:15.860Z,54.08
2023-02-04T08:27:42.764Z,54.63
2023-02-04T08:30:11.752Z,53.92
2023-02-04T08:32:39.272Z,53.77
2023-02-04T08:35:07.582Z,53.60
2023-02-04T08:37:34.660Z,53.46
2023-02-04T08:40:01.643Z,53.43
2023-02-04T08:42:29.997Z,52.90
2023-02-04T08:44:56.936Z,52.82
2023-02-04T08:47:23.763Z,53.01
2023-02-04T08:49:50.651Z,52.16
2023-02-04T08:52:17.583Z,52.41
2023-02-04T08:54:44.544Z,52.25
2023-02-04T08:57:11.477Z,51.92
2023-02-04T08:59:39.686Z,52.12
2023-02-04T09:02:06.583Z,51.29
2023-02-04T09:04:33.915Z,50.87
2023-02-04T09:07:00.839Z,51.40
2023-02-04T09:09:27.710Z,50.17
2023-02-04T09:11:54.611Z,49.91
2023-02-04T09:14:21.568Z,49.83
2023-02-04T09:16:49.731Z,49.87
2023-02-04T09:19:19.084Z,49.09
2023-02-04T09:21:46.030Z,49.09
2023-02-04T09:24:12.868Z,48.50
2023-02-04T09:26:39.773Z,48.90
2023-02-04T09:29:06.605Z,48.35
2023-02-04T09:31:33.571Z,48.03
2023-02-04T09:34:01.861Z,48.14
2023-02-04T09:36:30.480Z,47.80
2023-02-04T09:38:57.474Z,47.94
2023-02-04T09:41:24.472Z,47.22
2023-02-04T09:43:51.489Z,47.54
2023-02-04T09:46:23.680Z,47.64
2023-02-04T09:48:51.316Z,47.73
2023-02-04T09:51:25.212Z,47.69
2023-02-04T09:53:55.405Z,47.57
2023-02-04T09:56:28.147Z,47.04
2023-02-04T09:58:55.011Z,47.13
2023-02-04T10:01:22.054Z,47.21
2023-02-04T10:03:51.334Z,46.68
2023-02-04T10:06:22.254Z,45.93
2023-02-04T10:08:51.932Z,44.62
2023-02-04T10:11:22.120Z,43.38
2023-02-04T10:13:52.352Z,42.41
2023-02-04T10:16:29.569Z,41.59
2023-02-04T10:18:59.253Z,40.37
2023-02-04T10:21:32.091Z,39.42
2023-02-04T10:24:02.575Z,38.27
2023-02-04T10:26:32.336Z,36.76
2023-02-04T10:29:01.315Z,36.68
2023-02-04T10:31:33.061Z,35.71
2023-02-04T10:34:11.944Z,34.54
2023-02-04T10:36:43.043Z,33.12
2023-02-04T10:39:16.914Z,32.58
2023-02-04T10:41:50.014Z,32.81
2023-02-04T10:44:20.962Z,32.26
2023-02-04T10:46:48.410Z,32.62
2023-02-04T10:49:21.923Z,32.33
2023-02-04T10:51:52.755Z,31.84
2023-02-04T10:54:31.969Z,31.95
2023-02-04T10:57:02.988Z,31.83
2023-02-04T10:59:30.283Z,31.28
2023-02-04T11:02:00.689Z,30.95
2023-02-04T11:04:28.755Z,31.29
2023-02-04T11:06:56.948Z,31.36
2023-02-04T11:09:23.910Z,30.22
2023-02-04T11:11:51.631Z,30.27
2023-02-04T11:14:28.537Z,30.56
2023-02-04T11:17:01.418Z,30.88
2023-02-04T11:19:36.587Z,31.21
2023-02-04T11:22:22.675Z,31.81
2023-02-04T11:24:50.688Z,31.21
2023-02-04T11:27:24.962Z,31.39
2023-02-04T11:29:52.361Z,30.92
2023-02-04T11:32:35.021Z,30.52
2023-02-04T11:35:24.669Z,29.57
2023-02-04T11:37:54.576Z,28.79
2023-02-04T11:40:32.407Z,28.91
2023-02-04T11:43:03.467Z,28.63
2023-02-04T11:45:34.082Z,28.10
2023-02-04T11:48:04.199Z,28.42
2023-02-04T11:50:34.758Z,27.68
2023-02-04T11:53:03.055Z,28.34
2023-02-04T11:55:34.648Z,28.67
2023-02-04T11:58:01.704Z,28.93
2023-02-04T12:00:32.057Z,29.65
2023-02-04T12:03:01.748Z,29.73
2023-02-04T12:05:40.744Z,29.95
2023-02-04T12:08:23.980Z,29.53
2023-02-04T12:11:00.545Z,29.07
2023-02-04T12:13:30.733Z,29.63
2023-02-04T12:16:04.300Z,30.31
2023-02-04T12:18:34.514Z,30.40
2023-02-04T12:21:04.280Z,30.60
2023-02-04T12:23:32.904Z,30.89
2023-02-04T12:26:00.129Z,31.61
2023-02-04T12:28:28.844Z,32.22
2023-02-04T12:30:56.543Z,32.29
2023-02-04T12:33:23.629Z,31.94
2023-02-04T12:35:50.769Z,31.89
2023-02-04T12:38:19.189Z,32.08
2023-02-04T12:40:47.888Z,32.10
2023-02-04T12:43:14.729Z,32.49
2023-02-04T12:45:45.623Z,32.53
2023-02-04T12:48:13.901Z,32.49
2023-02-04T12:50:41.167Z,32.30
2023-02-04T12:53:08.784Z,33.11
2023-02-04T12:55:36.317Z,32.77
2023-02-04T12:58:04.912Z,33.11
2023-02-04T13:00:31.982Z,33.79
2023-02-04T13:02:59.030Z,33.91
2023-02-04T13:05:27.077Z,34.17
2023-02-04T13:07:54.106Z,34.49
2023-02-04T13:10:21.805Z,34.70
2023-02-04T13:12:48.933Z,34.56
2023-02-04T13:15:17.298Z,34.78
2023-02-04T13:17:44.273Z,35.01
2023-02-04T13:20:12.828Z,35.54
2023-02-04T13:22:39.846Z,35.65
2023-02-04T13:25:07.149Z,35.39
2023-02-04T13:27:34.117Z,35.34
2023-02-04T13:30:00.978Z,35.46
2023-02-04T13:32:29.195Z,35.96
2023-02-04T13:34:56.102Z,36.40
2023-02-04T13:37:23.133Z,36.51
2023-02-04T13:39:49.989Z,36.60
2023-02-04T13:42:16.894Z,36.55
2023-02-04T13:44:44.281Z,36.90
2023-02-04T13:47:11.335Z,37.16
2023-02-04T13:49:39.508Z,37.66
2023-02-04T13:52:06.407Z,37.48
2023-02-04T13:54:33.712Z,37.20
2023-02-04T13:57:01.105Z,37.63
2023-02-04T13:59:27.943Z,37.86
2023-02-04T14:01:54.955Z,37.83
2023-02-04T14:04:21.906Z,37.52
2023-02-04T14:06:50.218Z,37.55
2023-02-04T14:09:17.171Z,37.86
2023-02-04T14:11:44.316Z,37.58
2023-02-04T14:14:11.232Z,37.05
2023-02-04T14:16:38.260Z,37.70
2023-02-04T14:19:06.043Z,37.61
2023-02-04T14:21:33.025Z,37.49
2023-02-04T14:24:01.411Z,37.80
2023-02-04T14:26:28.350Z,37.69
2023-02-04T14:28:55.230Z,37.63
2023-02-04T14:31:22.157Z,37.85
2023-02-04T14:33:50.464Z,38.06
2023-02-04T14:36:17.591Z,38.18
2023-02-04T14:38:44.474Z,38.02
2023-02-04T14:41:16.196Z,38.34
2023-02-04T14:43:43.169Z,38.39
2023-02-04T14:46:10.160Z,38.22
2023-02-04T14:48:37.209Z,38.48
2023-02-04T14:51:05.361Z,38.47
2023-02-04T14:53:32.212Z,38.36
2023-02-04T14:55:59.104Z,38.63
2023-02-04T14:58:28.065Z,38.67
2023-02-04T15:00:55.502Z,39.55
2023-02-04T15:03:22.936Z,38.92
2023-02-04T15:05:49.864Z,39.23
2023-02-04T15:08:16.796Z,39.39
2023-02-04T15:10:43.670Z,39.66
2023-02-04T15:13:11.214Z,39.54
2023-02-04T15:15:39.414Z,39.65
2023-02-04T15:18:06.604Z,39.39
2023-02-04T15:20:33.763Z,39.51
2023-02-04T15:23:01.080Z,39.75
2023-02-04T15:25:28.198Z,39.69
2023-02-04T15:27:55.229Z,40.41
2023-02-04T15:30:22.691Z,40.06
2023-02-04T15:32:50.980Z,40.46
2023-02-04T15:35:17.952Z,40.35
2023-02-04T15:37:44.808Z,40.55
2023-02-04T15:40:12.142Z,40.68
2023-02-04T15:42:39.082Z,40.59
2023-02-04T15:45:07.259Z,40.93
2023-02-04T15:47:34.284Z,40.89
2023-02-04T15:50:05.800Z,41.01
2023-02-04T15:52:32.669Z,41.12
2023-02-04T15:54:59.763Z,41.59
2023-02-04T15:57:26.610Z,41.69
2023-02-04T15:59:53.639Z,41.87
2023-02-04T16:02:20.586Z,41.41
2023-02-04T16:04:47.878Z,41.65
2023-02-04T16:07:16.289Z,41.81
2023-02-04T16:09:43.743Z,42.20
2023-02-04T16:12:10.695Z,41.99
2023-02-04T16:14:37.585Z,42.26
2023-02-04T16:17:06.837Z,42.00
2023-02-04T16:19:33.775Z,42.37
2023-02-04T16:22:00.708Z,42.31
2023-02-04T16:24:28.879Z,42.47
2023-02-04T16:26:55.775Z,42.52
2023-02-04T16:29:22.717Z,42.58
2023-02-04T16:31:49.644Z,42.72
2023-02-04T16:34:16.522Z,42.69
2023-02-04T16:36:43.379Z,42.94
2023-02-04T16:39:10.241Z,43.56
2023-02-04T16:41:38.517Z,43.44
2023-02-04T16:44:05.364Z,42.96
2023-02-04T16:46:33.679Z,42.64
2023-02-04T16:49:01.191Z,42.53
2023-02-04T16:51:29.045Z,42.83
2023-02-04T16:53:55.933Z,43.00
2023-02-04T16:56:22.954Z,43.21
2023-02-04T16:58:51.134Z,43.55
2023-02-04T17:01:18.068Z,43.42
2023-02-04T17:03:46.000Z,42.72
2023-02-04T17:06:16.250Z,43.25
2023-02-04T17:08:43.316Z,42.93
2023-02-04T17:11:28.734Z,43.09
2023-02-04T17:13:57.669Z,42.73
2023-02-04T17:16:24.762Z,43.13
2023-02-04T17:18:51.723Z,42.94
2023-02-04T17:21:18.615Z,42.94
2023-02-04T17:23:45.525Z,43.60
2023-02-04T17:26:12.468Z,43.11
2023-02-04T17:28:39.801Z,42.88
2023-02-04T17:31:08.461Z,43.00
2023-02-04T17:33:35.602Z,43.32
2023-02-04T17:36:03.836Z,43.09
2023-02-04T17:38:31.560Z,43.07
2023-02-04T17:40:58.557Z,43.41
2023-02-04T17:43:25.909Z,42.99
2023-02-04T17:45:52.901Z,43.40
2023-02-04T17:48:21.466Z,42.94
2023-02-04T17:50:48.413Z,43.60
2023-02-04T17:53:15.330Z,42.98
2023-02-04T17:55:42.185Z,43.33
2023-02-04T17:58:15.189Z,43.13
2023-02-04T18:00:45.752Z,43.54
2023-02-04T18:03:15.297Z,43.74
2023-02-04T18:05:46.984Z,43.38
2023-02-04T18:08:18.702Z,43.53
2023-02-04T18:10:50.474Z,43.19
2023-02-04T18:13:20.109Z,43.43
2023-02-04T18:15:51.069Z,43.39
2023-02-04T18:18:26.186Z,43.39
2023-02-04T18:21:00.116Z,43.73
2023-02-04T18:23:30.584Z,43.55
2023-02-04T18:26:11.377Z,43.25
2023-02-04T18:28:44.377Z,43.76
2023-02-04T18:31:29.892Z,43.70
2023-02-04T18:33:57.201Z,43.80
2023-02-04T18:36:27.387Z,43.71
2023-02-04T18:38:55.303Z,43.76
2023-02-04T18:41:33.602Z,44.11
2023-02-04T18:44:17.659Z,44.14
2023-02-04T18:46:47.953Z,44.34
2023-02-04T18:49:25.788Z,44.70
2023-02-04T18:51:55.209Z,44.72
2023-02-04T18:54:30.856Z,44.64
2023-02-04T18:57:31.144Z,44.31
2023-02-04T19:00:27.624Z,44.86
2023-02-04T19:02:59.150Z,44.86
2023-02-04T19:05:34.486Z,44.99
2023-02-04T19:08:40.392Z,44.79
2023-02-04T19:11:33.017Z,45.10
2023-02-04T19:14:00.253Z,45.33
2023-02-04T19:16:36.681Z,45.52
2023-02-04T19:19:27.423Z,46.05
2023-02-04T19:21:54.327Z,45.31
2023-02-04T19:24:27.649Z,45.58
2023-02-04T19:26:57.109Z,45.63
2023-02-04T19:29:41.737Z,45.54
2023-02-04T19:32:28.457Z,46.36
2023-02-04T19:35:01.009Z,46.29
2023-02-04T19:37:39.080Z,45.97
2023-02-04T19:40:27.642Z,46.34
2023-02-04T19:43:02.033Z,46.50
2023-02-04T19:45:28.932Z,46.63
2023-02-04T19:47:57.411Z,46.09
2023-02-04T19:50:28.197Z,46.66
2023-02-04T19:53:00.713Z,46.05
2023-02-04T19:55:37.218Z,46.20
2023-02-04T19:58:17.747Z,46.55
2023-02-04T20:00:57.405Z,46.91
2023-02-04T20:03:41.916Z,46.76
2023-02-04T20:06:30.043Z,46.91
2023-02-04T20:09:04.463Z,46.38
2023-02-04T20:11:54.002Z,46.70
2023-02-04T20:14:49.934Z,47.11
2023-02-04T20:17:34.203Z,46.99
2023-02-04T20:20:24.642Z,46.99
2023-02-04T20:22:54.741Z,47.36
2023-02-04T20:25:41.977Z,47.09
2023-02-04T20:28:38.419Z,47.50
2023-02-04T20:31:25.694Z,47.40
2023-02-04T20:33:55.958Z,47.62
2023-02-04T20:36:42.025Z,47.36
2023-02-04T20:39:35.942Z,47.46
2023-02-04T20:42:37.110Z,48.30
2023-02-04T20:45:28.497Z,48.05
2023-02-04T20:47:59.968Z,48.18
2023-02-04T20:50:38.326Z,48.44
2023-02-04T20:53:24.919Z,48.76
2023-02-04T20:55:55.129Z,48.74
2023-02-04T20:58:26.641Z,48.67
2023-02-04T21:00:55.980Z,48.27
2023-02-04T21:03:27.454Z,48.35
2023-02-04T21:05:57.765Z,48.94
2023-02-04T21:08:29.608Z,48.93
2023-02-04T21:11:01.988Z,48.99
2023-02-04T21:13:29.280Z,48.78
2023-02-04T21:15:57.847Z,49.10
2023-02-04T21:18:25.053Z,49.07
2023-02-04T21:20:51.910Z,49.18
2023-02-04T21:23:19.723Z,48.81
2023-02-04T21:25:48.127Z,49.41
2023-02-04T21:28:15.308Z,48.73
2023-02-04T21:30:42.551Z,49.00
2023-02-04T21:33:11.615Z,49.20
2023-02-04T21:35:39.466Z,49.00
2023-02-04T21:38:07.526Z,49.10
2023-02-04T21:40:37.569Z,49.44
2023-02-04T21:43:07.881Z,49.43
2023-02-04T21:45:36.803Z,49.29
2023-02-04T21:48:05.064Z,49.19
2023-02-04T21:50:33.849Z,49.46
2023-02-04T21:53:01.097Z,49.40
2023-02-04T21:55:28.906Z,49.61
2023-02-04T21:57:56.205Z,49.60
2023-02-04T22:00:24.374Z,49.73
2023-02-04T22:02:52.635Z,49.72
2023-02-04T22:05:21.097Z,49.79
2023-02-04T22:07:50.116Z,49.72
2023-02-04T22:10:22.993Z,50.03
2023-02-04T22:12:50.148Z,50.30
2023-02-04T22:15:17.572Z,50.68
2023-02-04T22:17:45.259Z,50.38
2023-02-04T22:20:15.616Z,50.20
2023-02-04T22:22:43.662Z,50.43
2023-02-04T22:25:14.211Z,50.52
2023-02-04T22:27:41.470Z,51.05
2023-02-04T22:30:12.042Z,50.68
2023-02-04T22:32:39.272Z,50.63
2023-02-04T22:35:09.930Z,50.45
2023-02-04T22:37:37.217Z,50.84
2023-02-04T22:40:05.828Z,50.92
2023-02-04T22:42:34.142Z,50.87
2023-02-04T22:45:02.517Z,50.87
2023-02-04T22:47:30.143Z,50.68
2023-02-04T22:49:57.081Z,51.22
2023-02-04T22:52:24.352Z,51.09
2023-02-04T22:54:51.533Z,50.83
2023-02-04T22:57:18.549Z,51.09
2023-02-04T22:59:46.865Z,51.17
2023-02-04T23:02:14.088Z,51.17
2023-02-04T23:04:43.909Z,51.28
2023-02-04T23:07:12.116Z,51.65
2023-02-04T23:09:39.786Z,51.37
2023-02-04T23:12:12.923Z,51.46
2023-02-04T23:14:41.738Z,52.21
2023-02-04T23:17:10.702Z,51.96
2023-02-04T23:19:38.080Z,52.65
2023-02-04T23:22:07.166Z,52.59
2023-02-04T23:24:35.086Z,52.18
2023-02-04T23:27:03.061Z,52.77
2023-02-04T23:29:35.357Z,53.18
2023-02-04T23:32:03.984Z,52.98
2023-02-04T23:34:32.518Z,53.43
2023-02-04T23:36:59.536Z,53.56
2023-02-04T23:39:27.019Z,53.29
2023-02-04T23:41:53.930Z,53.16
2023-02-04T23:44:21.069Z,52.88
2023-02-04T23:46:48.063Z,53.38
2023-02-04T23:49:15.592Z,53.45
2023-02-04T23:51:44.128Z,53.08
2023-02-04T23:54:11.225Z,53.16
2023-02-04T23:56:38.128Z,53.41
2023-02-04T23:59:05.717Z,53.06
